Aérodrome :
LOGIN :

S'inscrire | Disclaimer

   EN    FR    IT 

 










Légende :    VFR   VFR Marginal   IFR   IFR Intensif   IFR Très Intensif
Visi : 
Plafond : 
>= 8 km
>= 3000ft
5 à 8 km
1000 à 3000 ft
1500m à 5 km
500 à 1000 ft
800 à 1500m
200 à 500 ft
< 800m
< 200 ft
Symboles :   Orages  Brouillard  Fortes neiges  Fortes précipitations  Vent > 20 kt
SIGMETs :   Divers  Orages  Givrage  Turbulence  Onde Orograph.  Cendres Volcan.







- Altitude de l'aérodrome : 821 ft
- Code IATA : LYS
- Voir les cartes d'approche


LFLL - Lyon St Exupéry / Satolas

DERNIER METAR :
  • 181800Z VRB03KT 7000 BKN005 OVC021 02/01 Q1025 R88/CLRD// NOSIG

METARs EXPIRÉS :
  • 181730Z VRB03KT 7000 BKN005 OVC021 02/00 Q1024 R88/CLRD// NOSIG
  • 181630Z 35007KT 6000 BKN006 OVC025 02/01 Q1024 R18R/591193 NOSIG
  • 181610Z 35006KT 5000 BR BKN006 OVC025 02/01 Q1024 R18R/591193 NOSIG
  • 181600Z 34004KT 4500 BR BKN006 OVC025 02/00 Q1024 R18R/591193 NOSIG
  • 181530Z 33005KT 4000 BR BKN006 OVC010 01/00 Q1023 R18R/591193 NOSIG

TAF TAF LFLL
Valide du 18 à 18h jusqu'au 20 à 00h UTC


181700Z 1818/1924 36010KT 8000 BKN025
TEMPO 1818/1909 2500 BR BKN004
PROB30
TEMPO 1901/1907 1200 BCFG DZ BKN002
Pas de NOTAMs connus pour ce terrain.



MET'MAP, la Météo Aéronautique d'un coup d'oeil ! - Copyright ORBIFLY Décembre 2007 - Disclaimer

ORBIFLY MET'MAP TEAM :

Programmation & Développement : Alexandra Zaïnal
Conception & Développement : Baudouin d'Aumeries
Co-Programmation & Développement : Marc-Olivier Méhu
Soutien technique & logistique : Manuel Goepfert

Contact : metmap@orbifly.com




SOURCES & CREDITS :

   NOAA